Nearby METAR Reports

 

KAVP - Avoca/Wilkes B., Pennsylvania, USA
Distance from station: N 16mi, 25km
Updated: 05/29/2020 1:54am
Overcast
Overcast
 Wind from S
Wind: S 7 mph , 11 km/h
Temperature: 73°F , 23°C
Dew Point: 66°F , 19°C
Humidity: 78%
Barometer: 30.01 inHg , 1016.3 hPa
Clouds: Overcast
Visibility: 10 miles , 16 km
Cloud details: Overcast 2700 ft
2020/05/29 05:54 KAVP 290554Z 18006KT 10SM OVC027 23/19 A3001 RMK AO2 SLP152 T02330194 10250 20233 58005
KMPO - Mt. Pocono, Pennsylvania, USA
Distance from station: E 20mi, 33km
Updated: 05/29/2020 2:44am
Mist, Overcast
Mist, Overcast
 Wind from S
Wind: S 14 mph , 22 km/h
Temperature: 66°F , 19°C
Dew Point: 66°F , 19°C
Humidity: 100%
Barometer: 30.07 inHg , 1018.3 hPa
Summary: Mist
Clouds: Overcast
Visibility: 1 3/4 miles , 2.8 km
Cloud details: Overcast 200 ft
2020/05/29 06:44 KMPO 290644Z AUTO 19012KT 1 3/4SM BR OVC002 19/19 A3007 RMK AO2 T01940189
 
KABE - Allentown, Pennsylvania, USA
Distance from station: SSE 36mi, 58km
Updated: 05/29/2020 1:51am
Overcast
Overcast
 Wind from SSW
Wind: SSW 7 mph , 11 km/h
Temperature: 73°F , 23°C
Dew Point: 68°F , 20°C
Humidity: 83%
Barometer: 30.03 inHg , 1016.9 hPa
Clouds: Overcast
Visibility: 10 miles , 16 km
Cloud details: Overcast 1200 ft
2020/05/29 05:51 KABE 290551Z 20006KT 10SM OVC012 23/20 A3003 RMK AO2 SLP165 T02280200 10239 20228 58003
KXLL - Allentown Queen, Pennsylvania, USA
Distance from station: SSE 41mi, 65km
Updated: 05/29/2020 2:35am
Overcast
Overcast
 Wind from SSW
Wind: SSW 7 mph , 11 km/h
Temperature: 72°F , 22°C
Dew Point: 70°F , 21°C
Humidity: 94%
Barometer: 30.04 inHg , 1017.3 hPa
Clouds: Overcast
Visibility: 10 miles , 16 km
Cloud details: Overcast 800 ft
2020/05/29 06:35 KXLL 290635Z AUTO 21006KT 10SM OVC008 22/21 A3004 RMK AO2